MSC Divina — 3FFA5 — position and weather

sailwx.info

Track history (hours):
 
Tides and Currents Weather Stations Pressure Air Temp Water Temp Dewpoint Dewpoint Depression Visibility Wind Speed Wind Dir Waves Ship Positions

MSC Divina

Last reported at 2017-May-24 23:50 UTC. Time now 2017-May-25 03:00 UTC.
Position N 20°39' W 086°54'.

Length 333 m; draft 8.6 m.

Type: Passenger vessel. MMSI: 373178000.

Date/timePositionNaut miles runAvg speedWind from/ knotsBaromVisibWave heightAir tempDewpointWater temp
2017-May-24 23:50N 20°39' W 086°54'620.1
2017-May-24 23:30N 20°34' W 086°58'3 6.7
2017-May-24 23:01N 20°31' W 086°57'0 0.0
2017-May-24 22:30N 20°31' W 086°57'0 0.0
2017-May-24 22:00N 20°31' W 086°57'0 0.0
2017-May-24 21:31N 20°31' W 086°57'0 0.0
2017-May-24 21:00N 20°31' W 086°57'0 0.0
2017-May-24 20:31N 20°31' W 086°57'0 0.0
2017-May-24 20:01N 20°31' W 086°57'0 0.0
2017-May-24 19:25N 20°31' W 086°57'0 0.0
2017-May-24 19:01N 20°31' W 086°57'0 0.0
2017-May-24 18:31N 20°31' W 086°57'0 0.0
2017-May-24 18:00N 20°31' W 086°57'0 0.0
2017-May-24 17:30N 20°31' W 086°57'0 0.0
2017-May-24 17:01N 20°31' W 086°57'0 0.0
2017-May-24 16:31N 20°31' W 086°57'0 0.0
2017-May-24 16:01N 20°31' W 086°57'0 0.0
2017-May-24 15:31N 20°31' W 086°57'0 0.0
2017-May-24 15:01N 20°31' W 086°57'0 0.0
2017-May-24 14:31N 20°31' W 086°57'8 8.0
2017-May-24 13:30N 20°38' W 086°53'  
2017-May-21 01:33N 25°19' W 079°54'114.4
2017-May-21 01:30N 25°20' W 079°54'714.5
2017-May-21 01:01N 25°26' W 079°57'815.7
2017-May-21 00:31N 25°34' W 080°00'816.2
2017-May-21 00:01N 25°41' W 080°03'510.7
2017-May-20 23:30N 25°45' W 080°07'4 6.6
2017-May-20 22:58N 25°47' W 080°11'0 0.0
2017-May-20 22:28N 25°47' W 080°11'0 0.0
2017-May-20 21:58N 25°47' W 080°11'0 0.0
2017-May-20 21:28N 25°47' W 080°11'0 0.0
2017-May-20 20:58N 25°47' W 080°11'0 0.0
2017-May-20 20:25N 25°47' W 080°11'0 0.0
2017-May-20 19:58N 25°47' W 080°11'0 0.0
2017-May-20 19:29N 25°47' W 080°11'0 0.0
2017-May-20 19:00N 25°47' W 080°11'0 0.0
2017-May-20 18:26N 25°47' W 080°11'0 0.0
2017-May-20 17:58N 25°47' W 080°11'0 0.0
2017-May-20 17:28N 25°47' W 080°11'0 0.0
2017-May-20 16:58N 25°47' W 080°11'0 0.0
2017-May-20 16:28N 25°47' W 080°11'0 0.0
2017-May-20 15:58N 25°47' W 080°11'0 0.0
2017-May-20 15:28N 25°47' W 080°11'0 0.0
2017-May-20 14:58N 25°47' W 080°11'0 0.0
2017-May-20 14:28N 25°47' W 080°11'0 0.0
2017-May-20 13:28N 25°47' W 080°11'0 0.0
2017-May-20 12:58N 25°47' W 080°11'0 0.0
2017-May-20 12:28N 25°47' W 080°11'0 0.0
2017-May-20 11:58N 25°47' W 080°11'0 0.0
2017-May-20 11:28N 25°47' W 080°11'0 0.0
2017-May-20 10:58N 25°47' W 080°11'0 0.0
2017-May-20 10:28N 25°47' W 080°11'0 0.0
2017-May-20 10:00N 25°47' W 080°11'0 0.6
2017-May-20 09:30N 25°47' W 080°11'2 4.3
2017-May-20 09:00N 25°46' W 080°09'611.9
2017-May-20 08:30N 25°47' W 080°02'612.0
2017-May-20 08:00N 25°49' W 079°56'917.1
2017-May-20 07:30N 25°53' W 079°48'816.7
2017-May-20 07:00N 25°57' W 079°40'816.9
2017-May-20 06:30N 26°01' W 079°31'815.1
2017-May-20 06:00N 26°05' W 079°24'  
2017-May-17 20:51N 18°28' W 066°08'1 0.1
2017-May-17 11:22N 18°27' W 066°07'4 9.7
2017-May-17 10:58N 18°31' W 066°07'6513.2
2017-May-17 06:01N 18°12' W 065°02'015.2
2017-May-17 06:00N 18°12' W 065°01'715.1
2017-May-17 05:30N 18°10' W 064°54'815.2
2017-May-17 05:00N 18°10' W 064°46'7014.2
2017-May-17 00:03N 18°03' W 063°32'114.0
2017-May-17 00:00N 18°03' W 063°31'714.3
2017-May-16 23:30N 18°02' W 063°24'814.6
2017-May-16 22:58N 18°01' W 063°16'714.7
2017-May-16 22:29N 18°00' W 063°08'5 1.5
2017-May-16 18:58N 18°01' W 063°03'0 0.0
2017-May-16 13:12N 18°01' W 063°03'0 0.0
2017-May-16 12:49N 18°01' W 063°03'0 0.4
2017-May-16 12:26N 18°00' W 063°03'2 3.4
2017-May-16 11:56N 18°00' W 063°05'916.2
2017-May-16 11:24N 18°02' W 063°14'717.5
2017-May-16 11:00N 18°07' W 063°19'1019.8
2017-May-16 10:30N 18°13' W 063°28'  
Track history (hours):
 
Tides and Currents Weather Stations Pressure Air Temp Water Temp Dewpoint Dewpoint Depression Visibility Wind Speed Wind Dir Waves Ship Positions

MSC Divina

Last reported at 2017-May-24 23:50 UTC. Time now 2017-May-25 03:00 UTC.
Position N 20°39' W 086°54'.

Length 333 m; draft 8.6 m.

Type: Passenger vessel. MMSI: 373178000.

Date/timePositionNaut miles runAvg speedWind from/ knotsBaromVisibWave heightAir tempDewpointWater temp
2017-May-24 23:50N 20°39' W 086°54'620.1
2017-May-24 23:30N 20°34' W 086°58'3 6.7
2017-May-24 23:01N 20°31' W 086°57'0 0.0
2017-May-24 22:30N 20°31' W 086°57'0 0.0
2017-May-24 22:00N 20°31' W 086°57'0 0.0
2017-May-24 21:31N 20°31' W 086°57'0 0.0
2017-May-24 21:00N 20°31' W 086°57'0 0.0
2017-May-24 20:31N 20°31' W 086°57'0 0.0
2017-May-24 20:01N 20°31' W 086°57'0 0.0
2017-May-24 19:25N 20°31' W 086°57'0 0.0
2017-May-24 19:01N 20°31' W 086°57'0 0.0
2017-May-24 18:31N 20°31' W 086°57'0 0.0
2017-May-24 18:00N 20°31' W 086°57'0 0.0
2017-May-24 17:30N 20°31' W 086°57'0 0.0
2017-May-24 17:01N 20°31' W 086°57'0 0.0
2017-May-24 16:31N 20°31' W 086°57'0 0.0
2017-May-24 16:01N 20°31' W 086°57'0 0.0
2017-May-24 15:31N 20°31' W 086°57'0 0.0
2017-May-24 15:01N 20°31' W 086°57'0 0.0
2017-May-24 14:31N 20°31' W 086°57'8 8.0
2017-May-24 13:30N 20°38' W 086°53'  
2017-May-21 01:33N 25°19' W 079°54'114.4
2017-May-21 01:30N 25°20' W 079°54'714.5
2017-May-21 01:01N 25°26' W 079°57'815.7
2017-May-21 00:31N 25°34' W 080°00'816.2
2017-May-21 00:01N 25°41' W 080°03'510.7
2017-May-20 23:30N 25°45' W 080°07'4 6.6
2017-May-20 22:58N 25°47' W 080°11'0 0.0
2017-May-20 22:28N 25°47' W 080°11'0 0.0
2017-May-20 21:58N 25°47' W 080°11'0 0.0
2017-May-20 21:28N 25°47' W 080°11'0 0.0
2017-May-20 20:58N 25°47' W 080°11'0 0.0
2017-May-20 20:25N 25°47' W 080°11'0 0.0
2017-May-20 19:58N 25°47' W 080°11'0 0.0
2017-May-20 19:29N 25°47' W 080°11'0 0.0
2017-May-20 19:00N 25°47' W 080°11'0 0.0
2017-May-20 18:26N 25°47' W 080°11'0 0.0
2017-May-20 17:58N 25°47' W 080°11'0 0.0
2017-May-20 17:28N 25°47' W 080°11'0 0.0
2017-May-20 16:58N 25°47' W 080°11'0 0.0
2017-May-20 16:28N 25°47' W 080°11'0 0.0
2017-May-20 15:58N 25°47' W 080°11'0 0.0
2017-May-20 15:28N 25°47' W 080°11'0 0.0
2017-May-20 14:58N 25°47' W 080°11'0 0.0
2017-May-20 14:28N 25°47' W 080°11'0 0.0
2017-May-20 13:28N 25°47' W 080°11'0 0.0
2017-May-20 12:58N 25°47' W 080°11'0 0.0
2017-May-20 12:28N 25°47' W 080°11'0 0.0
2017-May-20 11:58N 25°47' W 080°11'0 0.0
2017-May-20 11:28N 25°47' W 080°11'0 0.0
2017-May-20 10:58N 25°47' W 080°11'0 0.0
2017-May-20 10:28N 25°47' W 080°11'0 0.0
2017-May-20 10:00N 25°47' W 080°11'0 0.6
2017-May-20 09:30N 25°47' W 080°11'2 4.3
2017-May-20 09:00N 25°46' W 080°09'611.9
2017-May-20 08:30N 25°47' W 080°02'612.0
2017-May-20 08:00N 25°49' W 079°56'917.1
2017-May-20 07:30N 25°53' W 079°48'816.7
2017-May-20 07:00N 25°57' W 079°40'816.9
2017-May-20 06:30N 26°01' W 079°31'815.1
2017-May-20 06:00N 26°05' W 079°24'  
2017-May-17 20:51N 18°28' W 066°08'1 0.1
2017-May-17 11:22N 18°27' W 066°07'4 9.7
2017-May-17 10:58N 18°31' W 066°07'6513.2
2017-May-17 06:01N 18°12' W 065°02'015.2
2017-May-17 06:00N 18°12' W 065°01'715.1
2017-May-17 05:30N 18°10' W 064°54'815.2
2017-May-17 05:00N 18°10' W 064°46'7014.2
2017-May-17 00:03N 18°03' W 063°32'114.0
2017-May-17 00:00N 18°03' W 063°31'714.3
2017-May-16 23:30N 18°02' W 063°24'814.6
2017-May-16 22:58N 18°01' W 063°16'714.7
2017-May-16 22:29N 18°00' W 063°08'5 1.5
2017-May-16 18:58N 18°01' W 063°03'0 0.0
2017-May-16 13:12N 18°01' W 063°03'0 0.0
2017-May-16 12:49N 18°01' W 063°03'0 0.4
2017-May-16 12:26N 18°00' W 063°03'2 3.4
2017-May-16 11:56N 18°00' W 063°05'916.2
2017-May-16 11:24N 18°02' W 063°14'717.5
2017-May-16 11:00N 18°07' W 063°19'1019.8
2017-May-16 10:30N 18°13' W 063°28'  

Dump ship's entire track history